Time;durP1;ratioP1;P1;durP2;ratioP2;P2;SDS_P1;SDS_P2;PMS_P1;PMS_P2;Temp;Humidity;BMP_temperature;BMP_pressure;BME280_temperature;BME280_humidity;BME280_pressure;Samples;Min_cycle;Max_cycle;Signal;HPM_P1;HPM_P2
2023/12/12 00:01:59;;;;;;;9.63;1.10;;;7.20;99.90;;;;;;5076357;28;20428;-89
2023/12/12 00:04:25;;;;;;;8.93;1.38;;;7.20;99.90;;;;;;5074979;28;20899;-89
2023/12/12 00:06:50;;;;;;;9.55;1.58;;;7.10;99.90;;;;;;5076438;28;20462;-88
2023/12/12 00:09:16;;;;;;;8.73;1.57;;;7.40;99.90;;;;;;5071292;28;20461;-89
2023/12/12 00:11:42;;;;;;;8.93;1.30;;;7.00;99.90;;;;;;5071037;28;20440;-88
2023/12/12 00:14:07;;;;;;;7.32;1.40;;;6.90;99.90;;;;;;5072352;28;20459;-89
2023/12/12 00:16:33;;;;;;;8.10;1.40;;;6.80;99.90;;;;;;5070946;28;20437;-89
2023/12/12 00:18:59;;;;;;;7.90;1.17;;;6.80;99.90;;;;;;5072050;28;20422;-88
2023/12/12 00:21:24;;;;;;;7.30;1.30;;;6.70;99.90;;;;;;5070657;28;20410;-88
2023/12/12 00:23:50;;;;;;;7.70;1.33;;;6.70;99.90;;;;;;5072655;28;20807;-90
2023/12/12 00:26:15;;;;;;;9.07;1.60;;;6.90;99.90;;;;;;5071432;28;20931;-88
2023/12/12 00:28:41;;;;;;;7.83;1.50;;;6.50;99.90;;;;;;5071333;28;20467;-88
2023/12/12 00:31:07;;;;;;;11.07;1.77;;;6.40;99.90;;;;;;5072181;28;20425;-90
2023/12/12 00:33:32;;;;;;;7.63;1.35;;;6.30;99.90;;;;;;5070727;28;20464;-89
2023/12/12 00:36:00;;;;;;;7.27;1.80;;;6.30;99.90;;;;;;5072412;28;20523;-90
2023/12/12 00:38:29;;;;;;;9.35;2.00;;;6.20;99.90;;;;;;5070276;28;20425;-90
2023/12/12 00:40:55;;;;;;;8.27;2.13;;;6.10;99.90;;;;;;5071938;28;20481;-89
2023/12/12 00:43:22;;;;;;;7.50;1.90;;;6.30;99.90;;;;;;5070932;28;21018;-89
2023/12/12 00:45:48;;;;;;;9.10;2.10;;;5.90;99.90;;;;;;5071468;28;20401;-89
2023/12/12 00:48:14;;;;;;;8.80;2.30;;;5.90;99.90;;;;;;5071032;28;20398;-90
2023/12/12 00:50:39;;;;;;;6.45;2.10;;;5.80;99.90;;;;;;5070681;28;20834;-89
2023/12/12 00:53:05;;;;;;;9.35;2.13;;;5.80;99.90;;;;;;5071788;28;20885;-89
2023/12/12 00:55:31;;;;;;;8.32;1.67;;;5.80;99.90;;;;;;5086793;28;20440;-88
2023/12/12 00:57:56;;;;;;;8.50;2.33;;;5.60;99.90;;;;;;5071888;28;20401;-89
2023/12/12 01:00:22;;;;;;;5.97;1.70;;;5.90;99.90;;;;;;5070376;28;20410;-88
2023/12/12 01:02:48;;;;;;;8.50;2.13;;;6.00;99.90;;;;;;5071392;28;20433;-88
2023/12/12 01:05:14;;;;;;;9.97;2.73;;;5.80;99.90;;;;;;5071299;28;20776;-89
2023/12/12 01:07:40;;;;;;;8.63;2.50;;;5.70;99.90;;;;;;5071088;28;20485;-88
2023/12/12 01:10:07;;;;;;;7.97;2.67;;;5.60;99.90;;;;;;5070915;28;20402;-89
2023/12/12 01:12:34;;;;;;;7.85;2.78;;;5.30;99.90;;;;;;5070100;28;20429;-89
2023/12/12 01:15:00;;;;;;;8.65;2.80;;;5.60;99.90;;;;;;5072318;28;20394;-90
2023/12/12 01:17:27;;;;;;;7.80;2.50;;;5.50;99.90;;;;;;5069845;28;20710;-90
2023/12/12 01:19:53;;;;;;;6.60;2.50;;;5.10;99.90;;;;;;5071623;28;20398;-91
2023/12/12 01:22:19;;;;;;;10.43;3.17;;;5.40;99.90;;;;;;5070217;28;20409;-90
2023/12/12 01:24:44;;;;;;;7.28;2.80;;;5.00;99.90;;;;;;5071336;28;20498;-88
2023/12/12 01:27:10;;;;;;;9.33;3.07;;;4.80;99.90;;;;;;5071102;28;20402;-89
2023/12/12 01:29:36;;;;;;;27.30;3.47;;;5.20;99.90;;;;;;5069745;28;20788;-89
2023/12/12 01:32:02;;;;;;;7.03;2.30;;;4.90;99.90;;;;;;5071363;28;20418;-90
2023/12/12 01:34:28;;;;;;;8.00;2.27;;;4.80;99.90;;;;;;5069559;28;20486;-90
2023/12/12 01:36:54;;;;;;;9.13;2.40;;;4.70;99.90;;;;;;5088454;28;20485;-89
2023/12/12 01:39:20;;;;;;;11.15;3.28;;;4.70;99.90;;;;;;5069545;28;20402;-90
2023/12/12 01:41:48;;;;;;;7.73;2.60;;;4.60;99.90;;;;;;5070640;28;20460;-89
2023/12/12 01:44:14;;;;;;;8.10;3.13;;;4.60;99.90;;;;;;5070589;28;20416;-89
2023/12/12 01:46:42;;;;;;;10.48;3.15;;;4.50;99.90;;;;;;5070177;28;20402;-89
2023/12/12 01:49:09;;;;;;;12.82;3.85;;;4.50;99.90;;;;;;5070816;28;20406;-89
2023/12/12 01:51:35;;;;;;;11.18;4.30;;;4.80;99.90;;;;;;5069266;28;20718;-89
2023/12/12 01:54:02;;;;;;;9.65;3.55;;;4.40;99.90;;;;;;5070935;28;20413;-89
2023/12/12 01:56:32;;;;;;;11.95;3.85;;;4.30;99.90;;;;;;5069359;28;20405;-89
2023/12/12 01:58:58;;;;;;;12.15;3.83;;;4.50;99.90;;;;;;5065252;28;20476;-90
2023/12/12 02:01:25;;;;;;;14.35;4.80;;;4.50;99.90;;;;;;5069698;28;20434;-89
2023/12/12 02:03:52;;;;;;;11.60;4.65;;;4.20;99.90;;;;;;5069795;28;20912;-89
2023/12/12 02:06:22;;;;;;;11.38;4.63;;;4.10;99.90;;;;;;5087891;28;20398;-90
2023/12/12 02:08:49;;;;;;;16.10;5.78;;;4.10;99.90;;;;;;5069078;28;20495;-89
2023/12/12 02:11:16;;;;;;;13.45;5.95;;;4.00;99.90;;;;;;5070792;28;20429;-90
2023/12/12 02:13:41;;;;;;;12.75;5.95;;;4.10;99.90;;;;;;5085253;28;20481;-89
2023/12/12 02:16:08;;;;;;;13.38;5.10;;;4.00;99.90;;;;;;5070357;28;20883;-90
2023/12/12 02:18:34;;;;;;;36.50;9.43;;;3.90;99.90;;;;;;5069396;28;20448;-90
2023/12/12 02:21:00;;;;;;;24.20;9.03;;;3.90;99.90;;;;;;5070169;28;20402;-89
2023/12/12 02:23:29;;;;;;;19.40;8.13;;;3.90;99.90;;;;;;5070396;28;20499;-90
2023/12/12 02:25:56;;;;;;;19.05;7.82;;;3.90;99.90;;;;;;5069186;28;20467;-89
2023/12/12 02:28:22;;;;;;;17.70;8.05;;;3.80;99.90;;;;;;5070695;28;20412;-88
2023/12/12 02:30:48;;;;;;;18.50;9.13;;;3.80;99.90;;;;;;5068495;28;20920;-88
2023/12/12 02:33:14;;;;;;;14.95;6.75;;;3.70;99.90;;;;;;5087237;28;20406;-89
2023/12/12 02:35:39;;;;;;;15.55;6.70;;;3.60;99.90;;;;;;5068845;28;20410;-88
2023/12/12 02:38:05;;;;;;;12.85;4.60;;;3.60;99.90;;;;;;5069878;28;20413;-89
2023/12/12 02:40:31;;;;;;;11.40;5.30;;;3.50;99.90;;;;;;5069875;28;20421;-88
2023/12/12 02:42:57;;;;;;;11.55;4.28;;;3.50;99.90;;;;;;5068960;28;20407;-89
2023/12/12 02:45:22;;;;;;;14.60;4.30;;;3.60;99.90;;;;;;5070041;28;20478;-89
2023/12/12 02:47:48;;;;;;;15.23;4.40;;;3.40;99.90;;;;;;5068400;28;20405;-89
2023/12/12 02:50:14;;;;;;;12.43;4.65;;;3.50;99.90;;;;;;5070152;28;20527;-89
2023/12/12 02:52:39;;;;;;;10.77;4.63;;;3.70;99.90;;;;;;5068519;28;20464;-88
2023/12/12 02:55:05;;;;;;;12.40;6.23;;;3.90;99.90;;;;;;5069783;28;20762;-89
2023/12/12 02:57:31;;;;;;;16.13;6.40;;;3.30;99.90;;;;;;5068731;28;21262;-88
2023/12/12 02:59:56;;;;;;;15.27;8.00;;;3.40;99.90;;;;;;5069445;28;20492;-89
2023/12/12 03:02:22;;;;;;;16.80;6.95;;;3.30;99.90;;;;;;5069583;28;20502;-87
2023/12/12 03:04:49;;;;;;;19.58;7.82;;;3.40;99.90;;;;;;5068673;28;20411;-88
2023/12/12 03:07:15;;;;;;;19.95;8.93;;;3.30;99.90;;;;;;5069809;28;20500;-89
2023/12/12 03:09:40;;;;;;;22.45;8.20;;;3.30;99.90;;;;;;5068025;28;20500;-89
2023/12/12 03:12:06;;;;;;;21.50;8.93;;;3.40;99.90;;;;;;5069728;28;20459;-89
2023/12/12 03:14:34;;;;;;;17.37;7.20;;;3.40;99.90;;;;;;5084993;28;20405;-88
2023/12/12 03:16:59;;;;;;;14.40;7.30;;;3.30;99.90;;;;;;5069282;28;20920;-89
2023/12/12 03:19:25;;;;;;;22.45;8.88;;;3.30;99.90;;;;;;5053006;28;20405;-89
2023/12/12 03:21:51;;;;;;;21.13;8.68;;;3.30;99.90;;;;;;5085663;28;20406;-90
2023/12/12 03:24:17;;;;;;;37.60;11.30;;;3.30;99.90;;;;;;5069965;28;20410;-89
2023/12/12 03:26:43;;;;;;;25.73;10.02;;;3.30;99.90;;;;;;5071986;28;21792;-88
2023/12/12 03:29:09;;;;;;;20.80;8.85;;;3.30;99.90;;;;;;5090311;28;20494;-89
2023/12/12 03:31:35;;;;;;;54.50;13.70;;;4.00;99.90;;;;;;5071676;28;20514;-88
2023/12/12 03:34:00;;;;;;;35.33;12.68;;;3.20;99.90;;;;;;5073187;28;20451;-91
2023/12/12 03:36:26;;;;;;;36.92;12.43;;;3.20;99.90;;;;;;5072192;28;20406;-87
2023/12/12 03:38:52;;;;;;;22.50;10.77;;;3.20;99.90;;;;;;5072579;28;20460;-88
2023/12/12 03:41:17;;;;;;;32.53;11.97;;;3.10;99.90;;;;;;5073135;28;20402;-87
2023/12/12 03:43:43;;;;;;;24.03;10.43;;;3.10;99.90;;;;;;5071774;28;20492;-89
2023/12/12 03:46:12;;;;;;;29.13;12.23;;;3.10;99.90;;;;;;5072656;28;20406;-89
2023/12/12 03:48:38;;;;;;;28.77;11.20;;;3.20;99.90;;;;;;5088622;28;20512;-88
2023/12/12 03:51:04;;;;;;;27.15;12.05;;;3.00;99.90;;;;;;5073289;28;20508;-89
2023/12/12 03:53:30;;;;;;;25.13;10.48;;;3.00;99.90;;;;;;5085100;28;20407;-89
2023/12/12 03:55:55;;;;;;;23.73;9.80;;;3.00;99.90;;;;;;5068914;28;20505;-88
2023/12/12 03:58:21;;;;;;;19.40;7.35;;;3.00;99.90;;;;;;5036287;28;20412;-89
2023/12/12 04:00:47;;;;;;;21.13;8.67;;;2.90;99.90;;;;;;5051913;28;20412;-88
2023/12/12 04:03:12;;;;;;;28.07;8.90;;;3.00;99.90;;;;;;5053041;28;21071;-88
2023/12/12 04:05:38;;;;;;;20.40;8.77;;;2.90;99.90;;;;;;5051140;28;20418;-90
2023/12/12 04:08:04;;;;;;;22.35;7.60;;;3.00;99.90;;;;;;5052637;28;20404;-88
2023/12/12 04:10:30;;;;;;;17.83;7.07;;;3.00;99.90;;;;;;5067890;28;20419;-88
2023/12/12 04:12:56;;;;;;;22.77;7.70;;;3.00;99.90;;;;;;5068773;28;20895;-89
2023/12/12 04:15:22;;;;;;;17.55;7.10;;;3.00;99.90;;;;;;5052229;28;20435;-88
2023/12/12 04:17:47;;;;;;;17.07;7.70;;;3.10;99.90;;;;;;5051579;28;20451;-88
2023/12/12 04:20:13;;;;;;;25.35;8.82;;;3.10;99.90;;;;;;5068657;28;20435;-88
2023/12/12 04:22:39;;;;;;;18.15;7.20;;;3.10;99.90;;;;;;5079385;28;20406;-87
2023/12/12 04:25:05;;;;;;;19.67;8.67;;;3.10;99.90;;;;;;5072437;28;20420;-88
2023/12/12 04:27:32;;;;;;;18.05;8.10;;;3.10;99.90;;;;;;5070433;28;20418;-88
2023/12/12 04:29:57;;;;;;;13.27;6.65;;;3.10;99.90;;;;;;5089485;28;20731;-89
2023/12/12 04:32:23;;;;;;;20.07;7.40;;;3.20;99.90;;;;;;5070911;28;20436;-89
2023/12/12 04:34:48;;;;;;;17.40;5.72;;;3.20;99.90;;;;;;5071639;28;20764;-88
2023/12/12 04:37:14;;;;;;;19.87;8.60;;;3.20;99.90;;;;;;5071392;28;20414;-88
2023/12/12 04:39:40;;;;;;;12.93;6.17;;;3.20;99.90;;;;;;5087648;28;20406;-88
2023/12/12 04:42:11;;;;;;;19.95;8.55;;;3.20;99.90;;;;;;5089118;28;20402;-88
2023/12/12 04:44:36;;;;;;;23.23;8.52;;;3.20;99.90;;;;;;5087203;28;20459;-88
2023/12/12 04:47:02;;;;;;;22.67;8.93;;;3.30;99.90;;;;;;5071831;28;20525;-88
2023/12/12 04:49:28;;;;;;;16.42;7.45;;;3.30;99.90;;;;;;5087551;28;20847;-88
2023/12/12 04:51:54;;;;;;;15.48;7.30;;;3.30;99.90;;;;;;5071248;28;20785;-88
2023/12/12 04:54:19;;;;;;;20.87;9.97;;;3.40;99.90;;;;;;5087976;28;20456;-88
2023/12/12 04:56:45;;;;;;;23.27;8.80;;;3.40;99.90;;;;;;5071338;28;20919;-89
2023/12/12 04:59:10;;;;;;;18.60;7.88;;;3.40;99.90;;;;;;5054279;28;20806;-89
2023/12/12 05:01:36;;;;;;;20.63;8.82;;;3.50;99.90;;;;;;5069715;28;20410;-89
2023/12/12 05:04:03;;;;;;;17.30;7.83;;;3.50;99.90;;;;;;5071041;28;20402;-89
2023/12/12 05:06:29;;;;;;;17.52;8.20;;;3.50;99.90;;;;;;5086055;28;20433;-88
2023/12/12 05:08:55;;;;;;;21.85;8.98;;;3.50;99.90;;;;;;5071169;28;20519;-88
2023/12/12 05:11:20;;;;;;;19.67;8.95;;;3.50;99.90;;;;;;5070733;28;20577;-88
2023/12/12 05:13:46;;;;;;;24.67;9.98;;;3.60;99.90;;;;;;5087548;28;20988;-89
2023/12/12 05:16:12;;;;;;;26.08;10.13;;;3.50;99.90;;;;;;5071325;28;20757;-88
2023/12/12 05:18:38;;;;;;;60.95;12.75;;;3.40;99.90;;;;;;5070138;28;20398;-90
2023/12/12 05:21:04;;;;;;;16.23;8.45;;;3.60;99.90;;;;;;5070869;28;20892;-89
2023/12/12 05:23:30;;;;;;;25.73;11.00;;;3.60;99.90;;;;;;5086477;28;20443;-90
2023/12/12 05:25:55;;;;;;;27.48;12.27;;;3.60;99.90;;;;;;5088410;28;20471;-89
2023/12/12 05:28:21;;;;;;;31.92;14.45;;;3.80;99.90;;;;;;5086611;28;20413;-88
2023/12/12 05:30:47;;;;;;;25.37;11.97;;;3.90;99.90;;;;;;5087440;28;20405;-89
2023/12/12 05:33:13;;;;;;;22.87;11.70;;;3.60;99.90;;;;;;5087546;28;20410;-89
2023/12/12 05:35:38;;;;;;;33.07;16.00;;;3.60;99.90;;;;;;5070040;28;20893;-89
2023/12/12 05:38:06;;;;;;;35.08;16.08;;;3.70;99.90;;;;;;5087517;28;20409;-89
2023/12/12 05:40:32;;;;;;;34.15;15.60;;;3.90;99.90;;;;;;5086661;28;20893;-89
2023/12/12 05:42:58;;;;;;;40.85;16.08;;;3.60;99.90;;;;;;5088160;28;20398;-88
2023/12/12 05:45:24;;;;;;;34.08;14.00;;;3.60;99.90;;;;;;5069603;28;20900;-91
2023/12/12 05:47:50;;;;;;;24.93;12.53;;;3.50;99.90;;;;;;5069421;28;20456;-88
2023/12/12 05:50:15;;;;;;;32.10;14.00;;;3.50;99.90;;;;;;5069375;28;20398;-89
2023/12/12 05:52:42;;;;;;;51.67;17.65;;;3.50;99.90;;;;;;5086710;28;20434;-89
2023/12/12 05:55:08;;;;;;;31.45;13.82;;;3.40;99.90;;;;;;5070702;28;20481;-88
2023/12/12 05:57:35;;;;;;;16.85;10.07;;;3.40;99.90;;;;;;5069250;28;20409;-89
2023/12/12 06:00:02;;;;;;;32.87;15.70;;;3.40;99.90;;;;;;5087282;28;20828;-89
2023/12/12 06:02:28;;;;;;;35.80;15.63;;;3.40;99.90;;;;;;5069048;28;20406;-90
2023/12/12 06:04:54;;;;;;;30.00;14.93;;;3.50;99.90;;;;;;5070116;28;20429;-89
2023/12/12 06:07:20;;;;;;;35.40;15.90;;;3.30;99.90;;;;;;5069534;28;20406;-88
2023/12/12 06:09:45;;;;;;;36.97;17.38;;;3.30;99.90;;;;;;5052103;28;20479;-89
2023/12/12 06:12:11;;;;;;;21.42;12.32;;;3.40;99.90;;;;;;5069722;28;20473;-88
2023/12/12 06:14:37;;;;;;;26.40;13.88;;;3.40;99.90;;;;;;5084326;28;20897;-88
2023/12/12 06:17:03;;;;;;;45.00;18.85;;;3.40;99.90;;;;;;5069108;28;20442;-89
2023/12/12 06:19:29;;;;;;;32.53;15.23;;;3.40;99.90;;;;;;5068156;28;20413;-88
2023/12/12 06:21:54;;;;;;;20.52;11.75;;;3.30;99.90;;;;;;5069801;28;20417;-88
2023/12/12 06:24:21;;;;;;;29.70;13.63;;;3.30;99.90;;;;;;5068687;28;20418;-88
2023/12/12 06:26:46;;;;;;;34.60;15.80;;;3.30;99.90;;;;;;5068208;28;20913;-89
2023/12/12 06:29:15;;;;;;;32.47;15.68;;;3.30;99.90;;;;;;5066836;28;20527;-89
2023/12/12 06:31:41;;;;;;;36.23;15.33;;;3.70;99.90;;;;;;5067918;28;20434;-88
2023/12/12 06:34:10;;;;;;;45.63;18.10;;;3.20;99.90;;;;;;5085890;28;20915;-87
2023/12/12 06:36:38;;;;;;;35.67;16.08;;;3.30;99.90;;;;;;5068135;28;20410;-88
2023/12/12 06:39:04;;;;;;;43.33;17.83;;;3.30;99.90;;;;;;5069285;28;20416;-88
2023/12/12 06:41:29;;;;;;;43.93;17.27;;;3.30;99.90;;;;;;5084257;28;20402;-88
2023/12/12 06:43:55;;;;;;;28.37;12.80;;;3.30;99.90;;;;;;5069696;28;20413;-88
2023/12/12 06:46:21;;;;;;;26.45;11.45;;;3.30;99.90;;;;;;5084922;28;20924;-87
2023/12/12 06:48:47;;;;;;;41.05;15.90;;;3.30;99.90;;;;;;5069004;28;20414;-89
2023/12/12 06:51:13;;;;;;;40.30;13.18;;;3.30;99.90;;;;;;5068968;28;20461;-88
2023/12/12 06:53:39;;;;;;;63.65;18.33;;;3.30;99.90;;;;;;5068472;28;20438;-88
2023/12/12 06:56:05;;;;;;;77.50;20.00;;;3.20;99.90;;;;;;5069312;28;20479;-88
2023/12/12 06:58:31;;;;;;;32.55;15.27;;;3.20;99.90;;;;;;5067503;28;20463;-89
2023/12/12 07:00:57;;;;;;;50.42;17.23;;;3.20;99.90;;;;;;5055668;28;20402;-88
2023/12/12 07:03:23;;;;;;;51.47;18.27;;;3.50;99.90;;;;;;5072035;28;20429;-88
2023/12/12 07:05:52;;;;;;;162.00;22.43;;;3.30;99.90;;;;;;5072488;28;20819;-89
2023/12/12 07:08:18;;;;;;;131.25;31.05;;;3.30;99.90;;;;;;5073457;28;20444;-88
2023/12/12 07:10:48;;;;;;;127.50;24.90;;;3.40;99.90;;;;;;5071595;28;20404;-88
2023/12/12 07:13:13;;;;;;;175.00;28.30;;;3.10;99.90;;;;;;5090346;28;20406;-90
2023/12/12 07:15:40;;;;;;;172.07;34.83;;;3.80;99.90;;;;;;5071808;28;20468;-89
2023/12/12 07:18:11;;;;;;;101.40;31.10;;;3.80;99.90;;;;;;5073352;28;20413;-88
2023/12/12 07:20:41;;;;;;;134.60;29.52;;;3.50;99.90;;;;;;5088608;28;20506;-87
2023/12/12 07:23:07;;;;;;;220.07;41.78;;;3.50;99.90;;;;;;5072411;28;20418;-88
2023/12/12 07:25:33;;;;;;;205.70;36.67;;;3.60;99.90;;;;;;5072482;28;20402;-88
2023/12/12 07:27:58;;;;;;;196.23;35.87;;;3.70;99.90;;;;;;5071839;28;20856;-89
2023/12/12 07:30:27;;;;;;;227.30;34.47;;;3.70;99.90;;;;;;5072447;28;20398;-88
2023/12/12 07:32:56;;;;;;;205.10;32.15;;;3.70;99.90;;;;;;5071230;28;20612;-88
2023/12/12 07:35:22;;;;;;;253.88;39.63;;;3.80;99.90;;;;;;5089825;28;20402;-88
2023/12/12 07:37:48;;;;;;;223.00;36.17;;;3.80;99.90;;;;;;5071239;28;20990;-89
2023/12/12 07:40:14;;;;;;;177.43;35.03;;;3.90;99.90;;;;;;5072071;28;20406;-87
2023/12/12 07:42:40;;;;;;;241.60;37.53;;;4.00;99.90;;;;;;5071629;28;20410;-89
2023/12/12 07:45:07;;;;;;;194.90;31.30;;;4.20;99.90;;;;;;5071601;28;20777;-88
2023/12/12 07:47:33;;;;;;;284.67;46.80;;;4.10;99.90;;;;;;5071706;28;20413;-88
2023/12/12 07:49:59;;;;;;;245.52;44.35;;;4.10;99.90;;;;;;5071162;28;20800;-88
2023/12/12 07:52:25;;;;;;;252.27;53.25;;;4.10;99.90;;;;;;5072318;28;20873;-87
2023/12/12 07:54:51;;;;;;;205.50;44.25;;;4.20;99.90;;;;;;5071322;28;20405;-89
2023/12/12 07:57:17;;;;;;;166.77;39.37;;;4.20;99.90;;;;;;5071834;28;20397;-87
2023/12/12 07:59:43;;;;;;;222.77;53.28;;;4.30;99.90;;;;;;5070739;28;20417;-87
2023/12/12 08:02:09;;;;;;;302.20;59.72;;;4.40;99.90;;;;;;5071182;28;20416;-88
2023/12/12 08:04:35;;;;;;;316.67;52.30;;;4.40;99.90;;;;;;5088298;28;20598;-87
2023/12/12 08:07:01;;;;;;;304.52;45.67;;;4.40;99.90;;;;;;5070670;28;20893;-87
2023/12/12 08:09:29;;;;;;;287.33;41.95;;;4.50;99.90;;;;;;5071018;28;20428;-87
2023/12/12 08:11:55;;;;;;;339.75;50.60;;;4.80;99.90;;;;;;5069304;28;20430;-88
2023/12/12 08:14:21;;;;;;;305.40;44.50;;;4.60;99.90;;;;;;5071817;28;20455;-89
2023/12/12 08:16:47;;;;;;;308.73;47.27;;;4.40;99.90;;;;;;5087245;28;20421;-88
2023/12/12 08:19:13;;;;;;;295.20;48.42;;;4.70;99.90;;;;;;5087113;28;20410;-88
2023/12/12 08:21:40;;;;;;;427.98;55.83;;;4.70;99.90;;;;;;5071161;28;20478;-87
2023/12/12 08:24:06;;;;;;;288.25;40.92;;;4.70;99.90;;;;;;5069937;28;20521;-87
2023/12/12 08:26:40;;;;;;;316.13;42.65;;;4.80;99.90;;;;;;5087157;28;20466;-88
2023/12/12 08:29:06;;;;;;;360.63;49.75;;;4.80;99.90;;;;;;5084555;28;20430;-87
2023/12/12 08:31:32;;;;;;;309.53;46.80;;;4.80;99.90;;;;;;5070876;28;20450;-88
2023/12/12 08:33:57;;;;;;;331.73;48.63;;;4.90;99.90;;;;;;5069408;28;20410;-87
2023/12/12 08:36:24;;;;;;;353.77;47.63;;;4.90;99.90;;;;;;5070758;28;20410;-88
2023/12/12 08:38:50;;;;;;;435.40;51.05;;;5.20;99.90;;;;;;5086228;28;20404;-88
2023/12/12 08:41:16;;;;;;;390.17;47.83;;;5.20;99.90;;;;;;5069685;28;20405;-86
2023/12/12 08:43:41;;;;;;;252.80;41.72;;;5.10;99.90;;;;;;5071020;28;20401;-88
2023/12/12 08:46:07;;;;;;;241.93;39.63;;;5.20;99.90;;;;;;5069125;28;20402;-88
2023/12/12 08:48:33;;;;;;;249.35;40.35;;;5.50;99.90;;;;;;5070970;28;20398;-89
2023/12/12 08:50:59;;;;;;;313.17;44.42;;;5.30;99.90;;;;;;5069698;28;20836;-88
2023/12/12 08:53:26;;;;;;;273.02;43.60;;;5.20;99.90;;;;;;5071353;28;20411;-88
2023/12/12 08:55:55;;;;;;;380.55;52.15;;;5.30;99.90;;;;;;5087204;28;20406;-88
2023/12/12 08:58:25;;;;;;;275.60;46.55;;;5.30;99.90;;;;;;5086975;28;20757;-88
2023/12/12 09:00:54;;;;;;;354.30;50.25;;;5.40;99.90;;;;;;5070486;28;20413;-88
2023/12/12 09:03:20;;;;;;;298.55;47.17;;;5.40;99.90;;;;;;5086435;28;20426;-89
2023/12/12 09:05:46;;;;;;;271.33;47.15;;;5.40;99.90;;;;;;5070821;28;20398;-88
2023/12/12 09:08:12;;;;;;;274.35;49.15;;;5.60;99.90;;;;;;5085884;28;20463;-88
2023/12/12 09:10:38;;;;;;;332.23;48.20;;;5.40;99.90;;;;;;5070074;28;21172;-89
2023/12/12 09:13:04;;;;;;;283.83;48.30;;;5.40;99.90;;;;;;5069314;28;20534;-88
2023/12/12 09:15:31;;;;;;;238.50;44.00;;;5.30;99.90;;;;;;5086930;28;20488;-86
2023/12/12 09:17:57;;;;;;;271.35;46.95;;;5.40;99.90;;;;;;5070171;28;20402;-88
2023/12/12 09:20:23;;;;;;;333.02;56.50;;;5.40;99.90;;;;;;5086585;28;20414;-88
2023/12/12 09:22:48;;;;;;;366.13;59.72;;;5.40;99.90;;;;;;5070386;28;20758;-89
2023/12/12 09:25:14;;;;;;;256.40;50.10;;;5.40;99.90;;;;;;5085651;28;20410;-87
2023/12/12 09:27:39;;;;;;;404.00;63.40;;;5.40;99.90;;;;;;5070573;28;20414;-88
2023/12/12 09:30:06;;;;;;;337.67;60.08;;;5.40;99.90;;;;;;5069048;28;20402;-87
2023/12/12 09:32:32;;;;;;;327.53;60.63;;;5.50;99.90;;;;;;5086255;28;21022;-88
2023/12/12 09:34:58;;;;;;;342.87;60.57;;;5.50;99.90;;;;;;5065117;28;20489;-88
2023/12/12 09:37:23;;;;;;;373.13;62.57;;;5.50;99.90;;;;;;5069177;28;20402;-89
2023/12/12 09:39:49;;;;;;;452.55;70.88;;;5.60;99.90;;;;;;5070222;28;20889;-88
2023/12/12 09:42:17;;;;;;;441.02;69.75;;;5.60;99.90;;;;;;5085221;28;20406;-89
2023/12/12 09:44:48;;;;;;;443.08;65.88;;;5.60;99.90;;;;;;5069972;28;20394;-89
2023/12/12 09:47:14;;;;;;;401.63;65.10;;;5.60;99.90;;;;;;5068415;28;20410;-88
2023/12/12 09:49:40;;;;;;;303.15;57.10;;;5.90;99.90;;;;;;5086300;28;20467;-88
2023/12/12 09:52:07;;;;;;;302.40;59.33;;;5.80;99.90;;;;;;5098790;28;20424;-88
2023/12/12 09:54:36;;;;;;;386.43;66.97;;;5.80;99.90;;;;;;5106539;28;20397;-88
2023/12/12 09:57:03;;;;;;;340.33;61.67;;;5.70;99.90;;;;;;5081745;28;20398;-88
2023/12/12 09:59:30;;;;;;;417.85;70.40;;;5.70;99.90;;;;;;5068250;28;21267;-87
2023/12/12 10:01:57;;;;;;;390.10;65.85;;;5.80;99.90;;;;;;5087114;28;20889;-88
2023/12/12 10:04:24;;;;;;;373.70;71.38;;;5.70;99.90;;;;;;5067921;28;20402;-88
2023/12/12 10:06:53;;;;;;;350.73;65.05;;;5.70;99.90;;;;;;5069359;28;20885;-89
2023/12/12 10:09:22;;;;;;;369.65;65.72;;;5.80;99.90;;;;;;5067999;28;20410;-88
2023/12/12 10:11:48;;;;;;;253.52;58.55;;;5.80;99.90;;;;;;5085235;28;20815;-89
2023/12/12 10:14:13;;;;;;;311.10;60.75;;;5.90;99.90;;;;;;5068982;28;20472;-88
2023/12/12 10:16:39;;;;;;;487.63;76.43;;;5.90;99.90;;;;;;5084864;28;20473;-88
2023/12/12 10:19:10;;;;;;;247.93;58.60;;;5.90;99.90;;;;;;5069077;28;20410;-88
2023/12/12 10:21:36;;;;;;;395.83;69.72;;;5.90;99.90;;;;;;5083844;28;20402;-88
2023/12/12 10:24:03;;;;;;;385.10;61.70;;;6.30;99.90;;;;;;5067365;28;20462;-88
2023/12/12 10:26:31;;;;;;;455.65;74.03;;;6.00;99.90;;;;;;5067362;28;20834;-89
2023/12/12 10:28:58;;;;;;;340.90;65.95;;;6.20;99.90;;;;;;5067684;28;20803;-89
2023/12/12 10:31:25;;;;;;;310.45;64.78;;;6.30;99.90;;;;;;5067509;28;20449;-88
2023/12/12 10:33:51;;;;;;;337.45;64.43;;;6.20;99.90;;;;;;5083698;28;20460;-88
2023/12/12 10:36:17;;;;;;;352.55;66.13;;;6.30;99.90;;;;;;5068063;28;20424;-88
2023/12/12 10:38:44;;;;;;;258.35;54.42;;;6.50;99.90;;;;;;5083252;28;20488;-89
2023/12/12 10:41:18;;;;;;;192.30;54.92;;;6.10;99.90;;;;;;5085306;28;20406;-89
2023/12/12 10:43:45;;;;;;;242.40;56.75;;;6.20;99.90;;;;;;5083587;28;20421;-89
2023/12/12 10:46:13;;;;;;;226.50;54.83;;;6.20;99.90;;;;;;5067640;28;20441;-88
2023/12/12 10:48:46;;;;;;;261.75;61.05;;;6.30;99.90;;;;;;5067465;28;20734;-88
2023/12/12 10:51:13;;;;;;;263.33;57.67;;;6.30;99.90;;;;;;5066466;28;20805;-89
2023/12/12 10:53:44;;;;;;;138.55;46.67;;;6.30;99.90;;;;;;5067920;28;20485;-89
2023/12/12 10:56:11;;;;;;;185.45;52.00;;;6.40;99.90;;;;;;5066458;28;20410;-88
2023/12/12 10:58:39;;;;;;;139.90;48.45;;;6.40;99.90;;;;;;5067483;28;20402;-88
2023/12/12 11:01:09;;;;;;;127.35;47.17;;;6.50;99.90;;;;;;5084162;28;20407;-88
2023/12/12 11:03:36;;;;;;;152.80;50.77;;;6.50;99.90;;;;;;5084191;28;20426;-88
2023/12/12 11:06:05;;;;;;;151.48;49.42;;;6.60;99.90;;;;;;5084215;28;20501;-88
2023/12/12 11:08:31;;;;;;;138.80;48.90;;;6.60;99.90;;;;;;5067806;28;20401;-90
2023/12/12 11:11:08;;;;;;;116.97;46.03;;;6.70;99.90;;;;;;5071076;28;20751;-88
2023/12/12 11:13:36;;;;;;;101.28;43.20;;;6.70;99.90;;;;;;5069580;28;20451;-89
2023/12/12 11:16:04;;;;;;;112.15;44.70;;;6.80;99.90;;;;;;5070798;28;20403;-88
2023/12/12 11:18:30;;;;;;;98.10;42.75;;;6.80;99.90;;;;;;5086657;28;20405;-87
2023/12/12 11:20:56;;;;;;;106.38;44.08;;;6.90;99.90;;;;;;5070299;28;20408;-89
2023/12/12 11:23:42;;;;;;;91.80;41.90;;;6.90;99.90;;;;;;5070809;28;20934;-88
2023/12/12 11:26:08;;;;;;;99.20;43.28;;;7.00;99.90;;;;;;5036034;28;20413;-88
2023/12/12 11:28:36;;;;;;;98.10;43.22;;;7.00;99.90;;;;;;5070735;28;20456;-89
2023/12/12 11:31:02;;;;;;;88.93;40.20;;;7.00;99.90;;;;;;5069512;28;20400;-87
2023/12/12 11:33:31;;;;;;;95.80;41.80;;;7.00;99.90;;;;;;5070664;28;20477;-89
2023/12/12 11:35:57;;;;;;;80.28;37.90;;;7.00;99.90;;;;;;5069059;28;20824;-88
2023/12/12 11:38:28;;;;;;;89.50;40.42;;;7.10;99.90;;;;;;5070039;28;20416;-89
2023/12/12 11:41:13;;;;;;;81.97;39.70;;;7.40;99.90;;;;;;5071643;28;20404;-88
2023/12/12 11:43:40;;;;;;;73.28;36.63;;;7.10;99.90;;;;;;5070531;28;20995;-89
2023/12/12 11:46:21;;;;;;;69.65;35.83;;;7.10;99.90;;;;;;5071843;28;20404;-89
2023/12/12 11:48:48;;;;;;;72.40;36.22;;;7.10;99.90;;;;;;5073930;28;20974;-88
2023/12/12 11:51:35;;;;;;;85.03;39.10;;;7.10;99.90;;;;;;5074531;28;21100;-88
2023/12/12 11:54:06;;;;;;;70.03;37.05;;;7.10;99.90;;;;;;5074593;28;20879;-87
2023/12/12 11:56:33;;;;;;;75.63;37.58;;;7.10;99.90;;;;;;5073540;28;20434;-87
2023/12/12 11:59:02;;;;;;;74.03;37.28;;;7.10;99.90;;;;;;5074908;28;20403;-88
2023/12/12 12:01:27;;;;;;;75.05;36.10;;;7.30;99.90;;;;;;5073646;28;20416;-88
2023/12/12 12:03:53;;;;;;;66.97;34.63;;;7.20;99.90;;;;;;5073319;28;20407;-89
2023/12/12 12:06:20;;;;;;;71.53;36.40;;;7.10;99.90;;;;;;5097489;28;20412;-88
2023/12/12 12:08:49;;;;;;;66.97;35.60;;;7.10;99.90;;;;;;5090015;28;20523;-87
2023/12/12 12:11:15;;;;;;;78.40;37.53;;;7.10;99.90;;;;;;5074263;28;20432;-89
2023/12/12 12:13:44;;;;;;;81.32;40.17;;;7.10;99.90;;;;;;5090212;28;20457;-88
2023/12/12 12:16:11;;;;;;;72.72;38.33;;;7.30;99.90;;;;;;5074640;28;20406;-89
2023/12/12 12:18:37;;;;;;;80.47;39.60;;;7.10;99.90;;;;;;5073916;28;20431;-88
2023/12/12 12:21:04;;;;;;;82.57;40.13;;;7.30;99.90;;;;;;5074688;28;20461;-89
2023/12/12 12:23:32;;;;;;;72.85;40.33;;;7.20;99.90;;;;;;5091775;28;20426;-89
2023/12/12 12:26:01;;;;;;;88.05;42.22;;;7.30;99.90;;;;;;5091205;28;20412;-89
2023/12/12 12:28:34;;;;;;;92.88;43.08;;;7.70;99.90;;;;;;5092476;28;20420;-89
2023/12/12 12:31:00;;;;;;;82.38;41.05;;;7.20;99.90;;;;;;5073855;28;20404;-89
2023/12/12 12:33:38;;;;;;;87.57;40.80;;;7.20;99.90;;;;;;5091662;28;20407;-88
2023/12/12 12:36:05;;;;;;;91.93;40.27;;;7.20;99.90;;;;;;5074039;28;20412;-90